createdAt,value
2022-08-05T00:00:51.528Z,15.27
2022-08-05T00:03:25.592Z,15.30
2022-08-05T00:06:05.094Z,16.65
2022-08-05T00:08:54.817Z,16.33
2022-08-05T00:11:35.090Z,16.77
2022-08-05T00:14:22.729Z,17.00
2022-08-05T00:20:02.569Z,15.93
2022-08-05T00:22:37.937Z,15.18
2022-08-05T00:25:21.100Z,16.75
2022-08-05T00:27:55.573Z,15.30
2022-08-05T00:30:32.763Z,17.83
2022-08-05T00:33:15.444Z,17.00
2022-08-05T00:36:16.139Z,17.75
2022-08-05T00:38:56.749Z,17.52
2022-08-05T00:41:55.321Z,17.17
2022-08-05T00:44:32.902Z,17.40
2022-08-05T00:47:07.757Z,17.67
2022-08-05T00:49:51.765Z,17.58
2022-08-05T00:52:28.627Z,18.88
2022-08-05T00:55:03.111Z,20.00
2022-08-05T00:57:55.274Z,18.75
2022-08-05T01:00:30.728Z,18.77
2022-08-05T01:03:07.973Z,19.10
2022-08-05T01:05:44.443Z,19.17
2022-08-05T01:08:41.053Z,21.08
2022-08-05T01:11:22.213Z,23.58
2022-08-05T01:14:08.950Z,30.88
2022-08-05T01:17:00.977Z,29.63
2022-08-05T01:20:01.265Z,30.05
2022-08-05T01:22:53.033Z,29.42
2022-08-05T01:25:53.160Z,27.80
2022-08-05T01:28:34.241Z,26.52
2022-08-05T01:31:14.428Z,25.65
2022-08-05T01:36:47.087Z,27.48
2022-08-05T01:39:46.778Z,25.73
2022-08-05T01:42:20.378Z,26.42
2022-08-05T01:44:59.137Z,25.58
2022-08-05T01:47:39.700Z,24.58
2022-08-05T01:50:28.539Z,26.55
2022-08-05T01:53:13.096Z,26.17
2022-08-05T01:55:51.441Z,27.00
2022-08-05T01:58:40.401Z,27.60
2022-08-05T02:01:21.490Z,27.63
2022-08-05T02:04:00.585Z,27.23
2022-08-05T02:06:38.348Z,27.05
2022-08-05T02:09:14.632Z,27.30
2022-08-05T02:11:57.092Z,26.92
2022-08-05T02:14:36.050Z,26.27
2022-08-05T02:17:29.782Z,26.80
2022-08-05T02:20:15.665Z,25.05
2022-08-05T02:23:00.632Z,26.05
2022-08-05T02:25:49.012Z,26.83
2022-08-05T02:28:32.095Z,25.80
2022-08-05T02:31:14.428Z,28.90
2022-08-05T02:33:57.284Z,30.27
2022-08-05T02:36:33.174Z,30.52
2022-08-05T02:39:09.126Z,32.80
2022-08-05T02:42:00.850Z,33.20
2022-08-05T02:44:37.491Z,34.20
2022-08-05T02:47:15.044Z,33.38
2022-08-05T02:49:52.538Z,39.10
2022-08-05T02:52:30.500Z,36.80
2022-08-05T02:55:10.674Z,35.90
2022-08-05T02:58:10.384Z,36.42
2022-08-05T03:00:45.968Z,37.55
2022-08-05T03:03:23.796Z,34.70
2022-08-05T03:06:54.363Z,30.15
2022-08-05T03:08:56.096Z,32.10
2022-08-05T03:11:53.385Z,28.80
2022-08-05T03:14:24.567Z,27.23
2022-08-05T03:16:59.818Z,23.87
2022-08-05T03:19:36.144Z,22.70
2022-08-05T03:22:16.345Z,20.93
2022-08-05T03:24:52.327Z,16.50
2022-08-05T03:27:39.430Z,12.80
2022-08-05T03:30:19.696Z,11.20
2022-08-05T03:33:14.600Z,11.50
2022-08-05T03:35:50.374Z,10.77
2022-08-05T03:38:33.195Z,11.82
2022-08-05T03:41:11.088Z,10.90
2022-08-05T03:44:08.074Z,10.43
2022-08-05T03:46:40.399Z,10.38
2022-08-05T03:49:14.917Z,10.75
2022-08-05T03:52:37.936Z,10.52
2022-08-05T03:55:53.788Z,12.25
2022-08-05T03:57:52.096Z,15.07
2022-08-05T04:00:31.107Z,14.02
2022-08-05T04:03:06.724Z,13.25
2022-08-05T04:05:43.262Z,13.82
2022-08-05T04:08:30.163Z,13.60
2022-08-05T04:11:12.368Z,14.40
2022-08-05T04:13:50.155Z,12.55
2022-08-05T04:16:32.220Z,10.93
2022-08-05T04:19:10.530Z,11.45
2022-08-05T04:22:09.849Z,12.18
2022-08-05T04:24:38.312Z,13.18
2022-08-05T04:27:41.871Z,14.05
2022-08-05T04:30:30.610Z,14.27
2022-08-05T04:33:05.507Z,15.57
2022-08-05T04:36:11.245Z,15.73
2022-08-05T04:38:39.779Z,15.48
2022-08-05T04:41:19.660Z,15.90
2022-08-05T04:44:11.068Z,20.15
2022-08-05T04:46:47.085Z,15.80
2022-08-05T04:49:24.790Z,15.35
2022-08-05T04:52:13.560Z,14.82
2022-08-05T04:54:49.359Z,15.48
2022-08-05T04:57:23.995Z,16.70
2022-08-05T05:00:06.458Z,17.13
2022-08-05T05:02:43.428Z,18.13
2022-08-05T05:05:28.323Z,19.58
2022-08-05T05:08:06.537Z,19.23
2022-08-05T05:10:55.960Z,20.38
2022-08-05T05:13:32.364Z,19.80
2022-08-05T05:16:19.869Z,22.88
2022-08-05T05:19:17.684Z,21.88
2022-08-05T05:21:48.453Z,20.90
2022-08-05T05:24:29.162Z,19.27
2022-08-05T05:27:23.842Z,21.30
2022-08-05T05:30:04.790Z,19.80
2022-08-05T05:32:41.399Z,22.63
2022-08-05T05:35:19.820Z,22.08
2022-08-05T05:37:59.838Z,21.38
2022-08-05T05:40:38.838Z,22.67
2022-08-05T05:43:27.573Z,22.25
2022-08-05T05:46:15.631Z,23.23
2022-08-05T05:48:53.038Z,24.73
2022-08-05T05:51:29.852Z,26.10
2022-08-05T05:54:49.813Z,24.95
2022-08-05T05:57:18.991Z,24.65
2022-08-05T05:59:53.867Z,24.98
2022-08-05T06:02:37.547Z,29.13
2022-08-05T06:05:16.992Z,32.20
2022-08-05T06:08:01.098Z,28.77
2022-08-05T06:10:52.837Z,25.85
2022-08-05T06:13:26.986Z,30.05
2022-08-05T06:16:31.754Z,24.85
2022-08-05T06:19:07.982Z,25.95
2022-08-05T06:21:49.601Z,25.48
2022-08-05T06:24:25.713Z,28.25
2022-08-05T06:26:59.415Z,27.92
2022-08-05T06:29:52.107Z,25.50
2022-08-05T06:32:29.405Z,25.35
2022-08-05T06:35:15.481Z,24.23
2022-08-05T06:38:11.472Z,24.10
2022-08-05T06:40:48.303Z,29.23
2022-08-05T06:43:59.831Z,27.38
2022-08-05T06:46:17.644Z,24.85
2022-08-05T06:48:58.996Z,22.60
2022-08-05T06:51:33.632Z,22.92
2022-08-05T06:54:09.711Z,22.77
2022-08-05T06:56:54.880Z,19.65
2022-08-05T06:59:55.005Z,20.98
2022-08-05T07:02:31.922Z,21.45
2022-08-05T07:05:18.741Z,19.20
2022-08-05T07:07:55.000Z,17.27
2022-08-05T07:10:32.523Z,18.55
2022-08-05T07:13:52.449Z,18.15
2022-08-05T07:18:01.694Z,16.90
2022-08-05T07:20:10.579Z,18.52
2022-08-05T07:22:28.519Z,20.75
2022-08-05T07:25:24.080Z,20.17
2022-08-05T07:28:05.930Z,19.85
2022-08-05T07:30:44.199Z,20.00
2022-08-05T07:33:35.276Z,22.08
2022-08-05T07:36:20.878Z,21.23
2022-08-05T07:38:56.515Z,20.73
2022-08-05T07:42:13.712Z,20.88
2022-08-05T07:44:27.945Z,19.25
2022-08-05T07:47:07.997Z,19.83
2022-08-05T07:49:54.361Z,19.33
2022-08-05T07:52:28.943Z,20.33
2022-08-05T07:55:15.932Z,20.17
2022-08-05T07:58:02.973Z,21.63
2022-08-05T08:00:40.373Z,18.58
2022-08-05T08:03:17.572Z,19.73
2022-08-05T08:05:57.388Z,18.80
2022-08-05T08:08:34.017Z,18.42
2022-08-05T08:11:09.058Z,18.75
2022-08-05T08:14:00.416Z,18.70
2022-08-05T08:16:50.098Z,20.00
2022-08-05T08:20:43.036Z,19.63
2022-08-05T08:22:19.751Z,20.65
2022-08-05T08:24:54.229Z,20.50
2022-08-05T08:27:45.159Z,20.23
2022-08-05T08:30:32.529Z,21.25
2022-08-05T08:33:17.561Z,20.73
2022-08-05T08:36:12.795Z,20.10
2022-08-05T08:38:53.122Z,20.50
2022-08-05T08:41:52.295Z,20.70
2022-08-05T08:45:22.764Z,20.00
2022-08-05T08:48:07.157Z,22.17
2022-08-05T08:50:51.985Z,20.98
2022-08-05T08:53:26.831Z,20.40
2022-08-05T08:56:06.060Z,20.88
2022-08-05T08:58:47.979Z,20.60
2022-08-05T09:01:23.703Z,21.05
2022-08-05T09:03:59.374Z,20.58
2022-08-05T09:06:36.383Z,20.10
2022-08-05T09:09:11.969Z,20.20
2022-08-05T09:11:50.831Z,21.42
2022-08-05T09:14:57.714Z,21.65
2022-08-05T09:17:40.501Z,20.15
2022-08-05T09:20:36.493Z,20.67
2022-08-05T09:23:19.528Z,20.38
2022-08-05T09:26:10.274Z,20.67
2022-08-05T09:28:52.778Z,21.27
2022-08-05T09:32:39.966Z,20.05
2022-08-05T09:34:21.301Z,20.90
2022-08-05T09:36:59.146Z,21.70
2022-08-05T09:39:52.049Z,20.60
2022-08-05T09:42:28.176Z,20.48
2022-08-05T09:46:04.786Z,21.20
2022-08-05T09:48:06.829Z,21.67
2022-08-05T09:50:44.622Z,21.73
2022-08-05T09:53:26.212Z,21.90
2022-08-05T09:56:14.771Z,22.20
2022-08-05T09:59:01.915Z,21.67
2022-08-05T10:01:39.679Z,22.13
2022-08-05T10:04:28.644Z,22.40
2022-08-05T10:07:20.247Z,21.00
2022-08-05T10:10:13.824Z,22.52
2022-08-05T10:12:54.677Z,23.25
2022-08-05T10:15:34.410Z,20.77
2022-08-05T10:18:17.374Z,20.85
2022-08-05T10:20:53.257Z,21.35
2022-08-05T10:23:55.687Z,22.52
2022-08-05T10:26:24.400Z,21.15
2022-08-05T10:29:08.927Z,21.13
2022-08-05T10:32:55.491Z,21.42
2022-08-05T10:34:41.146Z,21.05
2022-08-05T10:37:16.981Z,22.23
2022-08-05T10:40:03.157Z,21.13
2022-08-05T10:42:43.835Z,20.40
2022-08-05T10:45:23.287Z,21.27
2022-08-05T10:48:52.357Z,20.98
2022-08-05T10:51:57.755Z,21.13
2022-08-05T10:54:56.410Z,20.65
2022-08-05T10:57:35.084Z,20.35
2022-08-05T11:00:23.380Z,20.67
2022-08-05T11:03:23.260Z,21.05
2022-08-05T11:06:15.150Z,21.25
2022-08-05T11:09:17.523Z,21.27
2022-08-05T11:11:53.998Z,20.58
2022-08-05T11:14:57.513Z,21.00
2022-08-05T11:17:57.544Z,21.20
2022-08-05T11:20:47.665Z,20.70
2022-08-05T11:24:05.689Z,21.42
2022-08-05T11:26:50.384Z,20.10
2022-08-05T11:29:42.195Z,20.13
2022-08-05T11:32:33.276Z,20.38
2022-08-05T11:35:12.198Z,20.52
2022-08-05T11:38:28.525Z,20.33
2022-08-05T11:41:34.573Z,20.30
2022-08-05T11:44:06.778Z,19.63
2022-08-05T11:47:11.227Z,20.38
2022-08-05T11:49:38.273Z,19.85
2022-08-05T11:52:19.073Z,19.58
2022-08-05T11:54:57.385Z,18.92
2022-08-05T11:58:08.260Z,18.70
2022-08-05T12:03:24.065Z,17.38
2022-08-05T12:06:10.773Z,18.08
2022-08-05T12:08:52.273Z,17.80
2022-08-05T12:11:40.461Z,19.92
2022-08-05T12:14:16.952Z,20.85
2022-08-05T12:16:52.145Z,20.38
2022-08-05T12:20:26.548Z,21.50
2022-08-05T12:22:25.612Z,20.83
2022-08-05T12:25:03.959Z,21.05
2022-08-05T12:27:42.929Z,21.52
2022-08-05T12:30:32.061Z,21.15
2022-08-05T12:33:27.533Z,21.38
2022-08-05T12:36:02.883Z,21.73
2022-08-05T12:38:37.676Z,21.13
2022-08-05T12:41:17.710Z,21.25
2022-08-05T12:43:59.910Z,20.88
2022-08-05T12:46:35.555Z,21.52
2022-08-05T12:49:14.120Z,21.80
2022-08-05T12:52:12.038Z,20.75
2022-08-05T12:54:47.400Z,21.45
2022-08-05T12:57:25.912Z,22.23
2022-08-05T13:01:57.567Z,21.10
2022-08-05T13:02:55.818Z,23.33
2022-08-05T13:05:37.476Z,23.40
2022-08-05T13:08:12.611Z,25.63
2022-08-05T13:10:51.862Z,24.98
2022-08-05T13:14:05.547Z,24.00
2022-08-05T13:16:27.717Z,24.50
2022-08-05T13:19:03.607Z,23.83
2022-08-05T13:21:47.895Z,25.65
2022-08-05T13:24:51.200Z,25.63
2022-08-05T13:27:37.333Z,24.98
2022-08-05T13:30:36.086Z,25.90
2022-08-05T13:34:20.241Z,25.38
2022-08-05T13:36:07.080Z,25.85
2022-08-05T13:38:43.284Z,25.67
2022-08-05T13:41:17.660Z,28.05
2022-08-05T13:47:02.011Z,27.30
2022-08-05T13:49:37.061Z,28.75
2022-08-05T13:52:29.117Z,29.40
2022-08-05T13:55:07.649Z,29.67
2022-08-05T13:57:51.597Z,30.50
2022-08-05T14:00:27.953Z,30.27
2022-08-05T14:03:05.473Z,29.65
2022-08-05T14:06:24.714Z,30.92
2022-08-05T14:08:35.202Z,33.47
2022-08-05T14:11:20.237Z,32.83
2022-08-05T14:13:57.620Z,35.35
2022-08-05T14:16:32.264Z,30.20
2022-08-05T14:19:09.035Z,31.83
2022-08-05T14:22:09.582Z,32.58
2022-08-05T14:24:39.758Z,33.80
2022-08-05T14:27:18.330Z,35.58
2022-08-05T14:29:52.833Z,33.63
2022-08-05T14:32:29.539Z,35.30
2022-08-05T14:35:06.173Z,36.08
2022-08-05T14:37:49.003Z,37.28
2022-08-05T14:40:26.151Z,37.88
2022-08-05T14:43:03.219Z,37.70
2022-08-05T14:45:39.444Z,38.70
2022-08-05T14:48:34.183Z,38.08
2022-08-05T14:51:11.278Z,37.80
2022-08-05T14:54:06.619Z,39.72
2022-08-05T14:56:47.198Z,39.55
2022-08-05T14:59:23.084Z,39.97
2022-08-05T15:01:57.871Z,39.45
2022-08-05T15:04:33.385Z,39.80
2022-08-05T15:10:11.633Z,39.08
2022-08-05T15:13:00.586Z,39.67
2022-08-05T15:15:55.324Z,41.38
2022-08-05T15:18:30.590Z,41.60
2022-08-05T15:21:08.074Z,42.10
2022-08-05T15:23:44.465Z,40.33
2022-08-05T15:26:32.008Z,42.53
2022-08-05T15:29:07.859Z,41.13
2022-08-05T15:31:42.356Z,41.67
2022-08-05T15:34:32.111Z,39.95
2022-08-05T15:37:15.633Z,42.00
2022-08-05T15:41:00.839Z,39.13
2022-08-05T15:43:01.350Z,39.28
2022-08-05T15:46:00.393Z,40.85
2022-08-05T15:48:36.629Z,40.53
2022-08-05T15:51:11.689Z,40.78
2022-08-05T15:53:50.851Z,42.83
2022-08-05T15:56:28.644Z,41.83
2022-08-05T15:59:04.898Z,40.42
2022-08-05T16:01:52.786Z,41.13
2022-08-05T16:04:27.923Z,41.35
2022-08-05T16:07:03.152Z,40.90
2022-08-05T16:09:43.578Z,41.50
2022-08-05T16:12:21.430Z,43.70
2022-08-05T16:14:55.939Z,43.33
2022-08-05T16:17:31.087Z,40.88
2022-08-05T16:20:11.925Z,41.80
2022-08-05T16:22:47.461Z,40.83
2022-08-05T16:25:21.702Z,40.75
2022-08-05T16:28:16.051Z,42.42
2022-08-05T16:30:54.763Z,42.45
2022-08-05T16:33:41.677Z,42.88
2022-08-05T16:36:23.933Z,41.05
2022-08-05T16:39:02.174Z,40.38
2022-08-05T16:42:14.379Z,40.00
2022-08-05T16:44:33.698Z,41.65
2022-08-05T16:47:07.767Z,39.25
2022-08-05T16:50:02.182Z,39.13
2022-08-05T16:55:26.363Z,41.75
2022-08-05T16:58:21.555Z,40.50
2022-08-05T17:01:03.483Z,40.60
2022-08-05T17:03:44.766Z,41.17
2022-08-05T17:06:25.224Z,40.53
2022-08-05T17:08:59.674Z,40.40
2022-08-05T17:11:35.922Z,39.88
2022-08-05T17:14:36.707Z,40.17
2022-08-05T17:17:20.024Z,42.83
2022-08-05T17:19:58.815Z,38.40
2022-08-05T17:22:33.825Z,41.90
2022-08-05T17:25:22.453Z,41.60
2022-08-05T17:28:09.800Z,41.83
2022-08-05T17:30:50.556Z,41.30
2022-08-05T17:33:38.924Z,43.90
2022-08-05T17:36:32.781Z,41.85
2022-08-05T17:39:24.201Z,40.85
2022-08-05T17:42:19.030Z,40.78
2022-08-05T17:44:58.762Z,41.65
2022-08-05T17:47:37.337Z,40.33
2022-08-05T17:50:14.968Z,41.88
2022-08-05T17:53:03.207Z,43.08
2022-08-05T17:55:40.289Z,45.03
2022-08-05T17:58:16.750Z,42.22
2022-08-05T18:00:57.065Z,42.17
2022-08-05T18:03:58.494Z,43.28
2022-08-05T18:06:29.413Z,43.63
2022-08-05T18:09:05.779Z,40.85
2022-08-05T18:11:56.061Z,41.97
2022-08-05T18:14:33.474Z,45.15
2022-08-05T18:17:58.927Z,43.97
2022-08-05T18:20:04.842Z,44.65
2022-08-05T18:22:53.959Z,45.17
2022-08-05T18:25:33.159Z,44.00
2022-08-05T18:28:07.581Z,43.55
2022-08-05T18:30:44.786Z,43.05
2022-08-05T18:33:22.587Z,43.58
2022-08-05T18:36:03.215Z,43.95
2022-08-05T18:38:42.644Z,44.42
2022-08-05T18:41:58.534Z,43.83
2022-08-05T18:44:12.718Z,43.90
2022-08-05T18:46:46.555Z,45.30
2022-08-05T18:49:57.279Z,45.05
2022-08-05T18:52:50.853Z,45.25
2022-08-05T18:55:27.288Z,43.73
2022-08-05T18:58:09.188Z,43.47
2022-08-05T19:00:49.944Z,42.10
2022-08-05T19:03:53.433Z,40.58
2022-08-05T19:06:21.426Z,42.60
2022-08-05T19:08:55.953Z,42.03
2022-08-05T19:11:58.642Z,40.17
2022-08-05T19:14:52.207Z,43.53
2022-08-05T19:20:10.056Z,43.90
2022-08-05T19:22:44.343Z,47.05
2022-08-05T19:25:30.136Z,44.03
2022-08-05T19:28:06.386Z,44.00
2022-08-05T19:30:39.465Z,43.78
2022-08-05T19:33:16.898Z,44.90
2022-08-05T19:35:55.953Z,43.47
2022-08-05T19:38:31.000Z,45.58
2022-08-05T19:41:07.165Z,45.75
2022-08-05T19:44:05.402Z,46.40
2022-08-05T19:46:41.351Z,49.15
2022-08-05T19:49:17.923Z,46.90
2022-08-05T19:52:09.305Z,45.20
2022-08-05T19:54:46.807Z,44.53
2022-08-05T19:57:47.428Z,45.13
2022-08-05T20:00:20.855Z,44.60
2022-08-05T20:02:54.662Z,45.43
2022-08-05T20:05:29.868Z,46.53
2022-08-05T20:11:03.831Z,48.33
2022-08-05T20:13:54.843Z,50.17
2022-08-05T20:16:35.395Z,51.00
2022-08-05T20:19:09.734Z,51.83
2022-08-05T20:21:43.713Z,52.38
2022-08-05T20:24:17.945Z,53.72
2022-08-05T20:26:52.709Z,53.07
2022-08-05T20:29:27.569Z,53.40
2022-08-05T20:32:03.718Z,51.95
2022-08-05T20:34:38.205Z,52.40
2022-08-05T20:37:24.170Z,56.17
2022-08-05T20:40:05.692Z,56.07
2022-08-05T20:42:40.819Z,52.63
2022-08-05T20:45:17.828Z,54.87
2022-08-05T20:47:58.319Z,56.63
2022-08-05T20:50:34.155Z,55.17
2022-08-05T20:53:16.336Z,56.70
2022-08-05T20:56:08.230Z,55.67
2022-08-05T20:58:42.620Z,54.70
2022-08-05T21:01:17.409Z,57.23
2022-08-05T21:03:53.213Z,61.83
2022-08-05T21:06:36.594Z,64.00
2022-08-05T21:09:10.822Z,58.27
2022-08-05T21:12:08.963Z,59.57
2022-08-05T21:14:42.209Z,59.93
2022-08-05T21:17:17.364Z,59.03
2022-08-05T21:19:53.181Z,61.47
2022-08-05T21:22:29.150Z,60.07
2022-08-05T21:25:03.156Z,60.03
2022-08-05T21:27:39.942Z,56.37
2022-08-05T21:30:21.168Z,57.57
2022-08-05T21:32:57.628Z,56.87
2022-08-05T21:35:55.523Z,54.47
2022-08-05T21:38:26.487Z,53.53
2022-08-05T21:41:00.679Z,56.67
2022-08-05T21:43:41.790Z,58.10
2022-08-05T21:46:15.582Z,54.43
2022-08-05T21:48:52.109Z,54.70
2022-08-05T21:52:21.999Z,53.97
2022-08-05T21:54:27.978Z,52.73
2022-08-05T21:57:29.751Z,50.43
2022-08-05T22:00:05.574Z,50.67
2022-08-05T22:02:47.035Z,50.07
2022-08-05T22:05:21.016Z,50.30
2022-08-05T22:08:02.703Z,49.20
2022-08-05T22:10:35.857Z,48.77
2022-08-05T22:14:05.696Z,50.13
2022-08-05T22:16:15.625Z,48.73
2022-08-05T22:18:58.573Z,47.07
2022-08-05T22:21:34.735Z,48.97
2022-08-05T22:24:40.445Z,47.90
2022-08-05T22:28:05.049Z,49.37
2022-08-05T22:30:23.782Z,48.53
2022-08-05T22:32:57.100Z,49.20
2022-08-05T22:35:48.062Z,47.73
2022-08-05T22:38:25.829Z,47.97
2022-08-05T22:41:01.045Z,47.97
2022-08-05T22:43:44.359Z,49.23
2022-08-05T22:46:23.495Z,50.00
2022-08-05T22:49:00.074Z,50.27
2022-08-05T22:52:05.028Z,48.37
2022-08-05T22:54:29.474Z,50.13
2022-08-05T22:57:04.920Z,50.63
2022-08-05T22:59:45.489Z,48.47
2022-08-05T23:02:29.397Z,49.30
2022-08-05T23:05:05.136Z,50.07
2022-08-05T23:07:44.976Z,48.83
2022-08-05T23:10:23.604Z,48.93
2022-08-05T23:12:59.861Z,48.87
2022-08-05T23:15:35.340Z,48.93
2022-08-05T23:18:11.749Z,48.07
2022-08-05T23:20:49.716Z,47.10
2022-08-05T23:23:22.979Z,46.07
2022-08-05T23:25:56.984Z,44.53
2022-08-05T23:28:33.168Z,46.73
2022-08-05T23:31:17.213Z,46.27
2022-08-05T23:34:04.604Z,46.43
2022-08-05T23:36:44.442Z,46.57
2022-08-05T23:39:32.148Z,44.60
2022-08-05T23:42:13.990Z,44.70
2022-08-05T23:47:47.499Z,45.78
2022-08-05T23:50:22.143Z,45.33
2022-08-05T23:52:57.873Z,45.35
2022-08-05T23:55:32.688Z,42.72
2022-08-05T23:58:06.678Z,44.17
